map of GRZ home
GRZ - Airport
Location
City:  Graz, Steiermark (Styria), Austria
Name:Graz International Airport
Old (Alt.):Thalerhof
ICAO:LOWG
IATA:GRZ

Details
Type:Airport (Flugplatz, Airfield)
Use:Public/Civil, Military, International (customs port of entry)
Latitude:4659'28"N (46.991067)
Longitude:1526'23"E (15.439628)
Datum:WGS 1984
Elevation:1115 ft (340 m)
Variation:4.19E (WMM2015v2 magnetic declination)
0.15 annual change
Runways:3
Longest:9842 × 148 ft (3000 × 45 m), paved

Time
Time Zone:UTC+1 (DST+2)
Local Time:

Weather
METAR:LOWG 041350Z 13003KT 080V190 9999 FEW050 07/M07 Q1027 NOSIG
TAF:LOWG 041115Z 0412/0512 12004KT CAVOK TX08/0413Z TNM05/0506Z
TEMPO 0412/0416 34012KT PROB30
TEMPO 0504/0507 0400 FZBCFG NSC

Related Locations
Nearby:
Farthest:CHT: 11820 mi / 19023 km
Waitangi [Tuuta], CIT, NZ

Find:

   beyond  
but within

Other Information
Maps:
NOTAMs:
Links:
Sources:

  
  • flag of Austria
  • flag of Steiermark (Styria)
  

Sectional Chart

Flight Planning
at skyvector.com

Satellite Image

Google Maps Satellite view

 

Copyright © 2004-2019 Karl L. Swartz. All rights reserved.
The Great Circle Mapper name and logo are trademarks of the Great Circle Mapper.
All other trademarks mentioned herein belong to their respective owners.
Please see credits for attibutions and further copyright information.

  Follow gcmap on Facebook Follow gcmap on Twitter GCmap on LinkedIn

hCard Microformat

Geo Microformat